首页
METAR-TAF:

METAR-TAF

机场 :

卡瓦拉亚历山大大帝国际机场

卡瓦拉, 希腊

纬度: 40-59N, 经度: 024-36E, 海拔: 5米

当前天气观测

该预报发布于27分钟前的07:50 UTC
风速7节,风向东北
温度 12°C
湿度 88%
气压 1020 hPa
能见度10公里或以上
散云层高于1000英尺
多云层高于2000英尺
阴天层高于7000英尺
小雨

METAR: LGKV 200750Z 04007KT 9999 -RA SCT010 BKN020 OVC070 12/10 Q1020

时间: 10:17 (08:17 UTC)

预报

该预报发布于3小时和17分钟前的05:00 UTC
预报有效从20日的 06点(UTC)到 20日的 15点(UTC)
风速10节,风向东转东北
能見度: 9000
少量云层高于1800英尺
几率 30% :
短暂存在
从 20日的 06点(UTC)到 20日的 15点(UTC)
能見度: 5000
散云层高于1000英尺
散云层高于1600英尺
多云层高于7000英尺

TAF: LGKV 200500Z 2006/2015 07010KT 9000 FEW018 PROB30 TEMPO 2006/2015 5000 RA SCT010 SCT016 BKN070

超过4000个机场的气象观测和天气预报(METAR&TAF报告)。

可查询的气象台以黄色和红色小点在地图上表示。

将鼠标移到小点上方,可查看气象台名称。

然后点击查看天气观测和预报。

如需切换地图:点击带黑十字的绿色按钮放大地图;点击带横线的绿色按钮缩小地图;或者点击绿色箭头查看邻近地区的地图。


METAR-TAF: